Flight Track Log - Related Links

Times and Time Zones

All times are in EDT time to prevent confusion due to time zone crossing. See the RPA3380 flight status page for this flight to view local times or setup timezone preferences in your user account.

Time Position Orientation Groundspeed Altitude Reporting Facility
EDT Latitude Longitude Course Direction KTS MPH feet Rate Location/Type
Mon 06:09:06 PM 39.7000 -86.3000 201° Southwest 166 191 1,500  Level Indianapolis TRACON
Mon 06:09:36 PM 39.6667 -86.3167 201° Southwest 171 197 2,300 2,067 Climbing Indianapolis TRACON
Mon 06:10:36 PM 39.6167 -86.3167 180° South 251 289 4,600 2,510 Climbing Indianapolis TRACON
Mon 06:11:14 PM 39.6214 -86.2675 83° East 268 308 6,400 3,000 Climbing Indianapolis Center
Mon 06:12:16 PM 39.6703 -86.1800 54° Northeast 298 343 9,600 2,710 Climbing Indianapolis Center
Mon 06:13:18 PM 39.7131 -86.0450 68° East 350 403 12,000 2,177 Climbing Indianapolis Center
Mon 06:14:20 PM 39.7406 -85.9181 74° East 364 419 14,100 2,032 Climbing Indianapolis Center
Mon 06:15:22 PM 39.7714 -85.7767 74° East 399 459 16,200 2,371 Climbing Indianapolis Center
Mon 06:16:24 PM 39.8011 -85.6361 75° East 405 466 19,000 2,419 Climbing Indianapolis Center
Mon 06:17:26 PM 39.8311 -85.4917 75° East 410 472 21,200 2,129 Climbing Indianapolis Center
Mon 06:18:28 PM 39.8689 -85.3144 74° East 421 484 23,400 2,032 Climbing Indianapolis Center
Mon 06:19:30 PM 39.8900 -85.1628 80° East 428 493 25,400 2,226 Climbing Indianapolis Center
Mon 06:20:32 PM 39.8947 -85.0175 88° East 408 470 28,000 1,839 Climbing Indianapolis Center
Mon 06:21:34 PM 39.9036 -84.8600 86° East 397 457 29,200 1,113 Climbing Indianapolis Center
Mon 06:22:36 PM 39.9117 -84.7089 86° East 411 473 30,300 871 Climbing Indianapolis Center
Mon 06:23:38 PM 39.9189 -84.5542 86° East 425 489 31,000 339 Climbing Indianapolis Center
Mon 06:24:40 PM 39.9269 -84.3997 86° East 427 491 31,000  Level Indianapolis Center
Mon 06:25:41 PM 39.9350 -84.2464 86° East 426 490 31,000  Level Indianapolis Center
Mon 06:26:43 PM 39.9542 -84.0911 81° East 429 494 31,000  Level Indianapolis Center
Mon 06:27:45 PM 39.9758 -83.9364 80° East 432 497 31,000  Level Indianapolis Center
Mon 06:28:47 PM 40.0006 -83.7497 80° East 432 497 31,000  Level Indianapolis Center
Mon 06:29:49 PM 40.0217 -83.5944 80° East 432 497 31,000  Level Indianapolis Center
Mon 06:30:51 PM 40.0428 -83.4361 80° East 432 497 31,000  Level Indianapolis Center
Mon 06:31:53 PM 40.0633 -83.2775 80° East 434 499 31,000  Level Indianapolis Center
Mon 06:32:55 PM 40.0833 -83.1200 81° East 435 501 31,000  Level Indianapolis Center
Mon 06:33:57 PM 40.1039 -82.9625 80° East 436 502 31,000  Level Indianapolis Center
Mon 06:34:59 PM 40.1239 -82.8075 80° East 436 502 31,000  Level Indianapolis Center
Mon 06:36:01 PM 40.1433 -82.6528 81° East 436 502 31,000 194 Level Indianapolis Center
Mon 06:37:03 PM 40.1586 -82.4628 84° East 436 502 31,400 871 Climbing Indianapolis Center
Mon 06:38:05 PM 40.1675 -82.2997 86° East 444 511 32,800 774 Climbing Indianapolis Center
Mon 06:39:07 PM 40.1775 -82.1403 85° East 444 511 33,000 97 Climbing Indianapolis Center
Mon 06:40:09 PM 40.1856 -81.9806 86° East 443 510 33,000  Level Indianapolis Center
Mon 06:41:01 PM 40.1933 -81.8519 85° East 443 510 33,000  Level Cleveland Center
Mon 06:42:04 PM 40.2017 -81.6750 86° East 443 510 33,000  Level Cleveland Center
Mon 06:43:06 PM 40.2100 -81.5150 86° East 443 510 33,000  Level Cleveland Center
Mon 06:44:08 PM 40.2189 -81.3558 86° East 443 510 33,000  Level Cleveland Center
Mon 06:45:10 PM 40.2286 -81.1628 86° East 444 511 33,000  Level Cleveland Center
Mon 06:46:12 PM 40.2361 -81.0025 86° East 444 511 33,000  Level Cleveland Center
Mon 06:47:14 PM 40.2436 -80.8444 86° East 443 510 33,000  Level Cleveland Center
Mon 06:48:16 PM 40.2503 -80.6853 87° East 441 507 33,000  Level Cleveland Center
Mon 06:49:18 PM 40.2572 -80.5261 87° East 441 507 33,000  Level Cleveland Center
Mon 06:50:20 PM 40.2644 -80.3344 87° East 441 507 33,000  Level Cleveland Center
Mon 06:51:22 PM 40.2700 -80.1747 87° East 442 509 33,000  Level Cleveland Center
Mon 06:52:24 PM 40.2761 -80.0194 87° East 444 511 33,000  Level Cleveland Center
Mon 06:53:26 PM 40.2822 -79.8597 87° East 444 511 33,000  Level Cleveland Center
Mon 06:54:29 PM 40.2894 -79.6675 87° East 445 512 33,000  Level Cleveland Center
Mon 06:55:31 PM 40.2950 -79.5050 87° East 447 514 33,000  Level Cleveland Center
Mon 06:56:33 PM 40.3508 -79.3639 63° Northeast 450 518 33,000  Level Cleveland Center
Mon 06:57:35 PM 40.4397 -79.2525 44° Northeast 436 502 33,000  Level Cleveland Center
Mon 06:58:37 PM 40.5203 -79.1356 48° Northeast 445 512 33,000  Level Cleveland Center
Mon 06:59:39 PM 40.5281 -78.9772 86° East 452 520 33,000  Level Cleveland Center
Mon 07:00:41 PM 40.4369 -78.8306 129° Southeast 439 505 33,000  Level Cleveland Center
Mon 07:01:43 PM 40.3506 -78.7175 135° Southeast 439 505 33,000  Level Cleveland Center
Mon 07:02:45 PM 40.2644 -78.6047 135° Southeast 441 507 33,000 -194 Level Cleveland Center
Mon 07:03:47 PM 40.1772 -78.4906 135° Southeast 442 509 32,600 -1,161 Descending Cleveland Center
Mon 07:04:49 PM 40.0814 -78.3208 126° Southeast 505 581 30,600 -1,887 Descending Cleveland Center
Mon 07:05:51 PM 40.0839 -78.1444 89° East 495 570 28,700 -2,274 Descending Cleveland Center
Mon 07:06:53 PM 40.1178 -77.9764 75° East 487 560 25,900 -1,887 Descending Cleveland Center
Mon 07:07:55 PM 40.1547 -77.7964 75° East 462 532 24,800 -1,790 Descending Cleveland Center
Mon 07:08:57 PM 40.1869 -77.6392 75° East 452 520 22,200 -2,565 Descending Cleveland Center
Mon 07:09:59 PM 40.2181 -77.4858 75° East 440 506 19,500 -2,516 Descending Cleveland Center
Mon 07:11:01 PM 40.2475 -77.3389 75° East 424 488 17,000 -1,210 Descending Cleveland Center
Mon 07:12:03 PM 40.2794 -77.1783 75° East 413 475 17,000  Level New York Center
Mon 07:13:03 PM 40.2917 -77.0272 84° East 413 475 17,000  Level New York Center
Mon 07:14:04 PM 40.2611 -76.8939 107° East 407 468 17,000 -198 Level New York Center
Mon 07:15:04 PM 40.2233 -76.7356 107° East 418 481 16,600 -1,109 Descending New York Center
Mon 07:16:03 PM 40.1928 -76.5942 106° East 412 474 14,800 -1,900 Descending New York Center
Mon 07:17:04 PM 40.1650 -76.4778 107° East 388 447 12,800 -1,339 Descending New York Center
Mon 07:18:04 PM 40.1375 -76.3614 107° East 351 404 12,100 -908 Descending New York Center
Mon 07:19:03 PM 40.1178 -76.2458 103° East 306 352 11,000 -555 Descending New York Center
Mon 07:20:03 PM 40.1103 -76.1367 95° East 299 344 11,000  Level New York Center
Mon 07:21:03 PM 40.1028 -76.0247 95° East 299 344 11,000 -300 Level New York Center
Mon 07:22:03 PM 40.0947 -75.9264 96° East 299 344 10,400 -1,150 Descending New York Center
Mon 07:23:03 PM 40.0831 -75.8089 97° East 299 344 8,700 -1,200 Descending New York Center
Mon 07:24:03 PM 40.0950 -75.7203 80° East 280 322 8,000 -350 Descending New York Center
Mon 07:25:03 PM 40.1342 -75.6361 59° Northeast 251 289 8,000  Level New York Center
Mon 07:26:03 PM 40.1661 -75.5650 60° Northeast 245 282 8,000  Level New York Center
Mon 07:27:03 PM 40.2028 -75.4861 59° Northeast 239 275 8,000 -100 Level New York Center
Mon 07:28:03 PM 40.2183 -75.4083 75° East 230 265 7,800 -500 Descending New York Center
Mon 07:29:03 PM 40.1683 -75.3561 141° Southeast 189 217 7,000 -397 Descending New York Center
Mon 07:30:04 PM 40.1283 -75.3072 137° Southeast 209 241 7,000  Level New York Center
Mon 07:31:03 PM 40.0889 -75.2531 134° Southeast 216 249 7,000 -202 Level New York Center
Mon 07:32:03 PM 40.0367 -75.2008 143° Southeast 216 249 6,600 -450 Descending New York Center
Mon 07:33:03 PM 39.9894 -75.1789 160° South 205 236 6,100 -550 Descending New York Center
Mon 07:34:03 PM 39.9883 -75.1003 91° East 175 201 5,500 -550 Descending New York Center
Mon 07:35:03 PM 40.0008 -75.0389 75° East 181 208 5,000 -1,000 Descending New York Center
Mon 07:36:03 PM 39.9803 -74.9725 112° Southeast 178 205 3,500 -984 Descending New York Center
Mon 07:37:05 PM 39.9333 -74.9667 175° South 193 222 3,000 -259 Descending Philadelphia TRACON
Mon 07:37:59 PM 39.9167 -75.0167 247° West 185 213 3,000 -500 Level Philadelphia TRACON
Mon 07:39:05 PM 39.9000 -75.1000 255° West 183 211 2,000 -905 Descending Philadelphia TRACON
Mon 07:40:05 PM 39.8833 -75.1500 247° West 154 177 1,100 -762 Descending Philadelphia TRACON
Mon 07:41:11 PM 39.8833 -75.2000 270° West 141 162 400 -636 Descending Philadelphia TRACON
Mon 07:43:00 PM 39.8667 -75.2333 247° West  Level FlightAware Approximate

Login

Don't have an account? Register now (free) for customized features, flight alerts, and more!